Time;durP1;ratioP1;P1;durP2;ratioP2;P2;SDS_P1;SDS_P2;PMS_P1;PMS_P2;Temp;Humidity;BMP_temperature;BMP_pressure;BME280_temperature;BME280_humidity;BME280_pressure;Samples;Min_cycle;Max_cycle;Signal;HPM_P1;HPM_P2
2022/09/01 00:02:10;;;;;;;;;17.33;17.33;;;;;22.64;87.31;101332.00;5057762;28;45301;-75
2022/09/01 00:04:39;;;;;;;;;16.00;14.67;;;;;22.65;87.55;101333.75;5058383;28;45274;-75
2022/09/01 00:07:05;;;;;;;;;17.33;17.33;;;;;22.61;87.39;101338.34;5040902;28;46267;-75
2022/09/01 00:09:31;;;;;;;;;17.67;16.00;;;;;22.60;87.57;101331.22;5040044;28;45723;-75
2022/09/01 00:11:57;;;;;;;;;17.67;17.00;;;;;22.59;87.60;101342.03;5023231;28;45318;-75
2022/09/01 00:14:25;;;;;;;;;20.00;19.00;;;;;22.56;87.72;101334.03;5058104;28;45479;-74
2022/09/01 00:16:50;;;;;;;;;13.67;13.00;;;;;22.51;88.13;101336.00;5058275;28;45570;-75
2022/09/01 00:19:16;;;;;;;;;18.00;15.33;;;;;22.45;88.17;101332.56;5057394;28;47360;-75
2022/09/01 00:21:43;;;;;;;;;19.00;17.67;;;;;22.41;88.42;101328.19;5057632;28;45348;-75
2022/09/01 00:24:09;;;;;;;;;17.67;17.67;;;;;22.41;88.64;101338.06;5057732;28;45269;-75
2022/09/01 00:26:35;;;;;;;;;16.00;16.00;;;;;22.37;89.08;101331.91;5058321;28;45506;-75
2022/09/01 00:29:00;;;;;;;;;15.67;15.67;;;;;22.34;89.63;101336.50;5039791;28;46087;-75
2022/09/01 00:31:26;;;;;;;;;16.67;14.67;;;;;22.30;89.92;101327.63;5057046;28;59703;-75
2022/09/01 00:33:52;;;;;;;;;18.00;17.00;;;;;22.25;89.66;101326.88;5057847;28;45588;-74
2022/09/01 00:36:18;;;;;;;;;16.00;16.00;;;;;22.25;90.09;101332.25;5039570;28;45478;-76
2022/09/01 00:38:44;;;;;;;;;19.67;19.67;;;;;22.20;90.27;101323.44;5057646;28;46685;-74
2022/09/01 00:41:09;;;;;;;;;18.67;18.67;;;;;22.18;90.40;101328.88;5057450;28;45467;-75
2022/09/01 00:43:50;;;;;;;;;18.33;18.33;;;;;22.13;90.77;101328.13;5057310;28;45974;-76
2022/09/01 00:46:20;;;;;;;;;17.00;16.67;;;;;22.12;90.69;101326.38;5039274;28;45499;-75
2022/09/01 00:48:50;;;;;;;;;16.33;16.33;;;;;22.10;91.01;101327.28;5057272;28;45516;-74
2022/09/01 00:51:16;;;;;;;;;17.33;17.33;;;;;22.08;91.27;101323.78;5039358;28;45602;-75
2022/09/01 00:53:42;;;;;;;;;18.33;16.67;;;;;22.05;91.05;101323.84;5039368;28;45481;-75
2022/09/01 00:56:08;;;;;;;;;18.67;18.67;;;;;22.05;91.46;101326.53;5039781;28;45623;-76
2022/09/01 00:58:35;;;;;;;;;19.67;19.67;;;;;22.01;92.04;101325.75;5039439;28;46582;-74
2022/09/01 01:01:01;;;;;;;;;24.00;22.33;;;;;22.00;91.78;101321.31;5057821;28;45522;-75
2022/09/01 01:03:29;;;;;;;;;25.33;22.67;;;;;22.01;91.71;101319.50;5039053;28;45412;-74
2022/09/01 01:05:57;;;;;;;;;18.33;17.33;;;;;21.97;92.12;101322.28;5039724;28;45574;-75
2022/09/01 01:08:32;;;;;;;;;16.33;15.67;;;;;21.97;92.20;101311.50;5056795;28;45599;-75
2022/09/01 01:11:01;;;;;;;;;27.67;20.00;;;;;21.94;92.07;101308.03;5040083;28;45532;-75
2022/09/01 01:13:27;;;;;;;;;21.00;18.33;;;;;21.93;92.41;101304.44;5039123;28;45680;-75
2022/09/01 01:15:52;;;;;;;;;17.00;15.67;;;;;21.91;92.31;101313.50;5057426;28;45649;-75
2022/09/01 01:18:18;;;;;;;;;18.00;16.67;;;;;21.86;92.51;101302.88;5056196;28;59355;-75
2022/09/01 01:23:56;;;;;;;;;21.00;21.00;;;;;21.79;93.38;101311.16;5040989;28;45398;-77
2022/09/01 01:26:22;;;;;;;;;19.00;18.33;;;;;21.73;93.51;101306.81;5036122;28;45467;-73
2022/09/01 01:28:48;;;;;;;;;18.33;18.33;;;;;21.70;93.75;101307.78;5056571;28;45831;-77
2022/09/01 01:31:20;;;;;;;;;19.67;18.67;;;;;21.69;94.08;101315.91;5056724;28;49654;-74
2022/09/01 01:33:49;;;;;;;;;19.00;17.33;;;;;21.66;94.05;101315.97;5038611;28;45312;-74
2022/09/01 01:36:20;;;;;;;;;16.33;16.33;;;;;21.61;94.48;101307.16;5057236;28;45432;-75
2022/09/01 01:38:48;;;;;;;;;20.67;19.00;;;;;21.60;94.32;101310.78;5056236;28;46982;-75
2022/09/01 01:41:16;;;;;;;;;18.67;18.33;;;;;21.56;94.79;101317.16;5038594;28;45493;-75
2022/09/01 01:43:41;;;;;;;;;18.00;16.67;;;;;21.52;94.86;101307.41;5055977;28;45551;-74
2022/09/01 01:46:08;;;;;;;;;19.67;19.67;;;;;21.53;95.46;101317.25;5038829;28;45548;-74
2022/09/01 01:48:39;;;;;;;;;21.33;19.67;;;;;21.54;95.72;101317.19;5038404;28;46210;-75
2022/09/01 01:51:05;;;;;;;;;20.00;19.67;;;;;21.57;95.77;101305.47;5021288;28;45408;-77
2022/09/01 01:53:32;;;;;;;;;16.67;16.67;;;;;21.58;96.61;101309.94;5037894;28;47302;-76
2022/09/01 01:55:58;;;;;;;;;19.33;18.00;;;;;21.59;95.99;101314.38;5056866;28;45509;-75
2022/09/01 01:58:27;;;;;;;;;19.00;18.00;;;;;21.58;96.09;101302.75;5056260;28;46349;-75
2022/09/01 02:00:54;;;;;;;;;15.67;15.67;;;;;21.61;96.26;101309.84;5056724;28;45878;-74
2022/09/01 02:03:24;;;;;;;;;18.33;16.67;;;;;21.62;96.45;101315.16;5037575;28;45525;-74
2022/09/01 02:05:52;;;;;;;;;16.33;14.00;;;;;21.61;96.40;101312.53;5056579;28;45673;-75
2022/09/01 02:08:19;;;;;;;;;16.00;16.00;;;;;21.60;96.46;101319.72;5038304;28;46777;-74
2022/09/01 02:10:46;;;;;;;;;17.00;17.00;;;;;21.58;96.42;101309.94;5037396;28;45321;-74
2022/09/01 02:13:16;;;;;;;;;19.67;18.33;;;;;21.58;96.78;101318.00;5056193;28;45428;-74
2022/09/01 02:15:47;;;;;;;;;15.67;14.67;;;;;21.55;96.95;101315.38;5052230;28;45433;-75
2022/09/01 02:18:27;;;;;;;;;18.00;17.33;;;;;21.52;97.53;101324.44;5037912;28;47320;-76
2022/09/01 02:20:54;;;;;;;;;17.00;17.00;;;;;21.50;97.43;101331.63;5055469;28;45860;-74
2022/09/01 02:23:23;;;;;;;;;18.33;15.67;;;;;21.45;97.73;101329.06;5056637;28;45443;-75
2022/09/01 02:25:52;;;;;;;;;16.67;16.67;;;;;21.42;97.89;101330.97;5038886;28;45439;-75
2022/09/01 02:28:19;;;;;;;;;22.33;19.33;;;;;21.41;98.08;101324.72;5037924;28;45799;-75
2022/09/01 02:30:48;;;;;;;;;20.67;18.33;;;;;21.37;98.54;101328.38;5055866;28;45350;-75
2022/09/01 02:33:17;;;;;;;;;19.33;16.67;;;;;21.34;98.83;101328.44;5055450;28;45450;-75
2022/09/01 02:35:49;;;;;;;;;16.33;16.33;;;;;21.26;98.39;101322.38;5038267;28;45552;-75
2022/09/01 02:38:16;;;;;;;;;18.00;16.00;;;;;21.25;99.12;101325.97;5038253;28;46586;-75
2022/09/01 02:40:44;;;;;;;;;18.00;17.67;;;;;21.23;99.25;101326.94;5037601;28;45307;-75
2022/09/01 02:43:10;;;;;;;;;16.00;16.00;;;;;21.21;99.45;101329.66;5037709;28;45510;-75
2022/09/01 02:45:37;;;;;;;;;16.33;15.00;;;;;21.17;99.82;101328.84;5055445;28;45417;-74
2022/09/01 02:48:06;;;;;;;;;18.00;15.33;;;;;21.14;100.00;101328.91;5051080;28;46008;-73
2022/09/01 02:50:32;;;;;;;;;19.00;17.33;;;;;21.09;100.00;101321.91;5037861;28;45710;-75
2022/09/01 02:52:59;;;;;;;;;22.33;16.33;;;;;21.07;100.00;101316.56;5039160;28;59552;-75
2022/09/01 02:55:25;;;;;;;;;20.33;16.33;;;;;21.04;100.00;101315.75;5056142;28;46228;-76
2022/09/01 02:57:54;;;;;;;;;17.33;16.00;;;;;21.01;100.00;101315.84;5055181;28;62044;-76
2022/09/01 03:00:21;;;;;;;;;16.67;15.00;;;;;21.01;100.00;101310.47;5038021;28;45520;-77
2022/09/01 03:02:51;;;;;;;;;20.33;17.00;;;;;20.97;100.00;101314.16;5041066;28;45349;-75
2022/09/01 03:05:24;;;;;;;;;19.33;18.00;;;;;20.97;100.00;101315.03;5037919;28;45397;-74
2022/09/01 03:07:52;;;;;;;;;19.33;16.33;;;;;20.92;100.00;101307.09;5055213;28;46023;-75
2022/09/01 03:10:20;;;;;;;;;16.33;14.33;;;;;20.91;100.00;101307.13;5054521;28;45533;-74
2022/09/01 03:12:45;;;;;;;;;17.33;17.33;;;;;20.92;100.00;101314.25;5055466;28;45403;-75
2022/09/01 03:15:12;;;;;;;;;13.33;13.33;;;;;20.89;100.00;101314.34;5037495;28;45544;-74
2022/09/01 03:17:37;;;;;;;;;14.67;14.67;;;;;20.88;100.00;101313.47;5037087;28;45844;-75
2022/09/01 03:20:03;;;;;;;;;14.00;14.00;;;;;20.86;100.00;101309.91;5054982;28;45471;-74
2022/09/01 03:22:28;;;;;;;;;22.67;17.33;;;;;20.82;100.00;101312.72;5054647;28;45444;-75
2022/09/01 03:24:55;;;;;;;;;13.67;13.67;;;;;20.81;100.00;101314.50;5054623;28;58991;-78
2022/09/01 03:27:20;;;;;;;;;16.67;16.67;;;;;20.79;100.00;101313.69;5055068;28;46591;-75
2022/09/01 03:29:45;;;;;;;;;16.33;14.67;;;;;20.76;100.00;101311.06;5055324;28;46424;-78
2022/09/01 03:32:11;;;;;;;;;19.33;18.33;;;;;20.72;100.00;101304.03;5055891;28;45439;-75
2022/09/01 03:34:38;;;;;;;;;17.00;15.00;;;;;20.70;100.00;101300.47;5058453;28;50721;-74
2022/09/01 03:37:06;;;;;;;;;18.00;15.33;;;;;20.69;100.00;101298.72;5040372;28;46889;-77
2022/09/01 03:39:32;;;;;;;;;13.33;13.33;;;;;20.67;100.00;101295.19;5058442;28;45372;-75
2022/09/01 03:41:58;;;;;;;;;14.33;14.00;;;;;20.68;100.00;101299.63;5058069;28;45566;-75
2022/09/01 03:44:24;;;;;;;;;13.00;13.00;;;;;20.68;100.00;101294.25;5058607;28;45411;-74
2022/09/01 03:46:50;;;;;;;;;15.67;14.00;;;;;20.69;100.00;101293.34;5039935;28;59670;-75
2022/09/01 03:49:25;;;;;;;;;12.33;12.33;;;;;20.68;100.00;101296.94;5057058;28;45431;-74
2022/09/01 03:51:52;;;;;;;;;15.67;14.67;;;;;20.67;100.00;101295.19;5056923;28;45257;-75
2022/09/01 03:54:18;;;;;;;;;15.67;14.67;;;;;20.66;100.00;101299.66;5058429;28;45486;-75
2022/09/01 03:56:44;;;;;;;;;13.33;13.33;;;;;20.66;100.00;101290.72;5039703;28;46701;-75
2022/09/01 03:59:15;;;;;;;;;12.00;9.67;;;;;20.69;100.00;101297.81;5040565;28;45336;-75
2022/09/01 04:01:42;;;;;;;;;13.33;13.00;;;;;20.68;100.00;101294.25;5040387;28;45413;-78
2022/09/01 04:04:12;;;;;;;;;15.00;13.33;;;;;20.69;100.00;101285.28;5040343;28;45653;-75
2022/09/01 04:06:38;;;;;;;;;11.33;11.33;;;;;20.73;100.00;101295.03;5040517;28;46582;-75
2022/09/01 04:09:04;;;;;;;;;11.33;9.33;;;;;20.71;100.00;101291.50;5043534;28;45485;-74
2022/09/01 04:11:31;;;;;;;;;11.33;11.33;;;;;20.67;100.00;101288.03;5041088;28;45493;-75
2022/09/01 04:13:57;;;;;;;;;16.00;14.00;;;;;20.70;100.00;101288.84;5039872;28;45605;-75
2022/09/01 04:19:24;;;;;;;;;14.00;14.00;;;;;20.69;100.00;101281.72;5052241;28;45398;-77
2022/09/01 04:21:53;;;;;;;;;14.00;14.00;;;;;20.68;100.00;101280.84;5057702;28;45332;-75
2022/09/01 04:24:20;;;;;;;;;12.33;12.33;;;;;20.69;100.00;101274.56;5057232;28;45543;-75
2022/09/01 04:26:47;;;;;;;;;14.67;14.00;;;;;20.66;100.00;101277.28;5056770;28;45962;-75
2022/09/01 04:29:13;;;;;;;;;14.67;13.67;;;;;20.67;100.00;101279.97;5055949;28;45624;-76
2022/09/01 04:31:39;;;;;;;;;16.00;13.33;;;;;20.65;100.00;101276.41;5038219;28;45495;-74
2022/09/01 04:34:25;;;;;;;;;14.33;12.33;;;;;20.67;100.00;101279.09;5039299;28;45451;-74
2022/09/01 04:36:53;;;;;;;;;16.00;13.33;;;;;20.66;100.00;101278.19;5057320;28;46707;-75
2022/09/01 04:39:18;;;;;;;;;17.67;13.33;;;;;20.66;100.00;101277.28;5067792;22;46012;-75
2022/09/01 04:41:44;;;;;;;;;21.67;15.67;;;;;20.61;100.00;101271.16;5051405;28;45578;-74
2022/09/01 04:44:11;;;;;;;;;13.00;13.00;;;;;20.64;100.00;101281.81;5072883;28;45670;-76
2022/09/01 04:46:41;;;;;;;;;11.67;11.67;;;;;20.64;100.00;101276.47;5057308;28;45910;-74
2022/09/01 04:49:11;;;;;;;;;14.00;12.33;;;;;20.62;100.00;101267.59;5076228;28;45439;-74
2022/09/01 04:51:40;;;;;;;;;13.67;13.67;;;;;20.65;100.00;101265.69;5059103;28;45517;-74
2022/09/01 04:54:11;;;;;;;;;13.00;13.00;;;;;20.63;100.00;101272.03;5076636;28;45557;-76
2022/09/01 04:56:37;;;;;;;;;11.67;11.00;;;;;20.64;100.00;101271.97;5057964;28;47571;-74
2022/09/01 04:59:05;;;;;;;;;12.67;10.00;;;;;20.63;100.00;101264.84;5056766;28;45428;-74
2022/09/01 05:01:41;;;;;;;;;14.33;14.33;;;;;20.66;100.00;101269.25;5076676;28;45367;-74
2022/09/01 05:04:08;;;;;;;;;13.00;13.00;;;;;20.69;100.00;101285.28;5060414;28;45323;-74
2022/09/01 05:06:34;;;;;;;;;12.33;11.33;;;;;20.69;100.00;101269.19;5055198;28;46946;-74
2022/09/01 05:08:59;;;;;;;;;15.67;13.00;;;;;20.72;100.00;101279.88;5057372;28;46484;-74
2022/09/01 05:11:26;;;;;;;;;17.67;13.67;;;;;20.73;100.00;101278.94;5074384;28;60595;-74
2022/09/01 05:13:56;;;;;;;;;15.67;14.00;;;;;20.69;100.00;101269.19;5059193;28;45474;-74
2022/09/01 05:16:22;;;;;;;;;13.00;13.00;;;;;20.75;100.00;101281.56;5058899;28;47973;-78
2022/09/01 05:18:48;;;;;;;;;13.33;13.33;;;;;20.76;100.00;101281.53;5059427;28;45301;-76
2022/09/01 05:21:16;;;;;;;;;12.67;12.67;;;;;20.75;100.00;101276.22;5059510;28;45377;-77
2022/09/01 05:23:43;;;;;;;;;16.00;14.33;;;;;20.79;100.00;101297.56;5076015;28;45498;-78
2022/09/01 05:26:20;;;;;;;;;13.67;13.67;;;;;20.78;100.00;101282.41;5058537;28;45922;-73
2022/09/01 05:28:48;;;;;;;;;14.00;14.00;;;;;20.82;100.00;101284.06;5075403;28;46130;-78
2022/09/01 05:31:18;;;;;;;;;12.67;12.67;;;;;20.83;100.00;101285.84;5077251;28;45373;-80
2022/09/01 05:33:44;;;;;;;;;13.00;10.67;;;;;20.83;100.00;101279.59;5055209;28;45426;-76
2022/09/01 05:36:11;;;;;;;;;13.33;13.33;;;;;20.86;100.00;101283.06;5076599;28;47584;-77
2022/09/01 05:38:41;;;;;;;;;15.33;13.67;;;;;20.87;100.00;101284.84;5056065;28;45376;-77
2022/09/01 05:41:08;;;;;;;;;13.33;12.00;;;;;20.86;100.00;101285.75;5071134;28;45562;-77
2022/09/01 05:43:34;;;;;;;;;14.00;13.33;;;;;20.87;100.00;101281.28;5059114;28;45454;-77
2022/09/01 05:46:02;;;;;;;;;12.67;11.00;;;;;20.88;100.00;101283.06;5058389;28;45817;-77
2022/09/01 05:48:30;;;;;;;;;13.67;13.67;;;;;20.90;100.00;101281.22;5057886;28;45274;-77
2022/09/01 05:50:59;;;;;;;;;13.67;13.67;;;;;20.91;100.00;101281.16;5071065;28;45475;-76
2022/09/01 05:53:27;;;;;;;;;13.67;12.00;;;;;20.92;100.00;101277.56;5054707;28;45422;-79
2022/09/01 05:55:55;;;;;;;;;12.00;12.00;;;;;20.97;100.00;101280.13;5057299;28;45867;-76
2022/09/01 05:58:23;;;;;;;;;11.00;10.00;;;;;21.01;100.00;101281.81;5076386;28;45424;-75
2022/09/01 06:00:50;;;;;;;;;13.33;13.33;;;;;21.05;100.00;101278.16;5085844;27;45643;-76
2022/09/01 06:03:16;;;;;;;;;11.33;11.33;;;;;21.08;100.00;101283.41;5073706;28;45583;-82
2022/09/01 06:05:43;;;;;;;;;14.67;13.67;;;;;21.14;100.00;101290.44;5057684;28;46884;-76
2022/09/01 06:08:09;;;;;;;;;13.00;12.33;;;;;21.16;100.00;101285.94;5074627;28;45385;-77
2022/09/01 06:10:38;;;;;;;;;10.00;10.00;;;;;21.16;100.00;101281.44;5052607;28;45217;-77
2022/09/01 06:13:07;;;;;;;;;13.33;12.67;;;;;21.20;100.00;101287.63;5075530;28;45695;-82
2022/09/01 06:15:35;;;;;;;;;13.33;11.33;;;;;21.24;100.00;101289.28;5057062;28;45568;-81
2022/09/01 06:18:01;;;;;;;;;18.00;14.67;;;;;21.26;100.00;101290.16;5039964;28;45590;-80
2022/09/01 06:20:26;;;;;;;;;14.00;14.00;;;;;21.30;100.00;101293.66;5074629;28;58631;-80
2022/09/01 06:22:52;;;;;;;;;13.67;13.33;;;;;21.31;100.00;101293.63;5076359;28;45635;-77
2022/09/01 06:25:18;;;;;;;;;9.33;9.33;;;;;21.34;100.00;101289.97;5056929;28;45758;-79
2022/09/01 06:27:46;;;;;;;;;12.67;12.67;;;;;21.36;100.00;101291.72;5067219;28;45432;-77
2022/09/01 06:30:19;;;;;;;;;14.33;12.67;;;;;21.40;100.00;101288.00;5075701;28;45304;-76
2022/09/01 06:32:45;;;;;;;;;17.33;15.00;;;;;21.47;100.00;101287.84;5058899;28;45692;-78
2022/09/01 06:35:12;;;;;;;;;16.00;14.33;;;;;21.51;100.00;101293.09;5056949;28;45648;-77
2022/09/01 06:37:38;;;;;;;;;9.00;9.00;;;;;21.55;100.00;101283.16;5074829;28;45485;-81
2022/09/01 06:40:05;;;;;;;;;15.33;15.33;;;;;21.60;100.00;101292.84;5053380;28;45616;-79
2022/09/01 06:42:34;;;;;;;;;13.00;11.00;;;;;21.64;100.00;101280.22;5054378;28;45664;-78
2022/09/01 06:45:00;;;;;;;;;13.00;13.00;;;;;21.73;100.00;101287.13;5055805;28;46387;-79
2022/09/01 06:47:29;;;;;;;;;15.33;14.67;;;;;21.77;100.00;101287.00;5056439;28;45706;-80
2022/09/01 06:49:57;;;;;;;;;17.00;13.33;;;;;21.80;100.00;101292.28;5074020;28;45554;-78
2022/09/01 06:52:23;;;;;;;;;16.67;14.00;;;;;21.85;100.00;101284.97;5039707;28;45840;-80
2022/09/01 06:54:50;;;;;;;;;14.00;13.33;;;;;21.90;100.00;101284.84;5039640;28;47955;-80
2022/09/01 06:57:16;;;;;;;;;14.67;14.67;;;;;21.97;100.00;101284.63;5070036;28;46177;-79
2022/09/01 06:59:41;;;;;;;;;13.33;11.33;;;;;22.07;100.00;101287.94;5055488;28;56611;-79
2022/09/01 07:02:07;;;;;;;;;12.67;11.33;;;;;22.12;100.00;101290.53;5056845;28;45308;-79
2022/09/01 07:04:33;;;;;;;;;14.33;14.33;;;;;22.15;100.00;101293.09;5055311;28;46396;-80
2022/09/01 07:06:59;;;;;;;;;15.33;15.00;;;;;22.18;100.00;101291.22;5076476;28;45411;-81
2022/09/01 07:09:25;;;;;;;;;13.00;12.33;;;;;22.18;100.00;101284.97;5043326;28;45555;-79
2022/09/01 07:11:51;;;;;;;;;11.67;11.67;;;;;22.22;100.00;101282.13;5059802;28;45538;-81
2022/09/01 07:14:18;;;;;;;;;15.33;13.00;;;;;22.21;100.00;101279.47;5056104;28;47447;-81
2022/09/01 07:16:45;;;;;;;;;16.00;14.33;;;;;22.26;100.00;101287.41;5060649;28;45522;-79
2022/09/01 07:19:14;;;;;;;;;11.33;11.33;;;;;22.23;100.00;101278.50;5065978;28;45371;-80
2022/09/01 07:21:42;;;;;;;;;13.33;12.00;;;;;22.25;100.00;101286.53;5061475;28;45476;-79
2022/09/01 07:24:09;;;;;;;;;12.67;11.67;;;;;22.26;100.00;101282.03;5043741;28;47865;-83
2022/09/01 07:26:34;;;;;;;;;13.67;12.00;;;;;22.26;100.00;101285.59;5076302;28;45494;-81
2022/09/01 07:29:02;;;;;;;;;12.67;12.67;;;;;22.30;100.00;101286.38;5060649;28;45390;-77
2022/09/01 07:31:35;;;;;;;;;13.33;13.33;;;;;22.31;100.00;101294.41;5067029;28;45527;-79
2022/09/01 07:34:04;;;;;;;;;15.67;12.33;;;;;22.30;100.00;101292.66;5066984;28;45605;-79
2022/09/01 07:36:30;;;;;;;;;13.33;13.33;;;;;22.33;100.00;101305.16;5060073;28;45375;-78
2022/09/01 07:38:55;;;;;;;;;13.67;11.67;;;;;22.33;100.00;101307.84;5059711;28;45193;-77
2022/09/01 07:41:23;;;;;;;;;15.67;15.33;;;;;22.36;100.00;101302.34;5057433;28;45386;-82
2022/09/01 07:43:54;;;;;;;;;12.00;12.00;;;;;22.37;100.00;101301.41;5076201;28;46715;-80
2022/09/01 07:46:22;;;;;;;;;12.00;12.00;;;;;22.40;100.00;101299.50;5043966;28;45395;-75
2022/09/01 07:48:48;;;;;;;;;14.33;14.33;;;;;22.42;100.00;101303.03;5058959;28;45316;-79
2022/09/01 07:51:18;;;;;;;;;12.33;12.33;;;;;22.44;100.00;101297.63;5041208;28;45491;-81
2022/09/01 07:53:44;;;;;;;;;13.33;12.00;;;;;22.46;100.00;101291.25;5060023;28;46377;-76
2022/09/01 07:56:10;;;;;;;;;12.67;12.67;;;;;22.51;100.00;101295.63;5059858;28;45528;-75
2022/09/01 07:58:37;;;;;;;;;13.00;12.00;;;;;22.54;100.00;101292.84;5060770;28;45431;-75
2022/09/01 08:01:13;;;;;;;;;15.00;13.67;;;;;22.59;100.00;101301.66;5078002;28;45392;-75
2022/09/01 08:03:39;;;;;;;;;13.00;13.00;;;;;22.62;100.00;101296.16;5058980;28;45692;-75
2022/09/01 08:06:07;;;;;;;;;12.67;12.67;;;;;22.68;100.00;101298.66;5043843;28;45692;-75
2022/09/01 08:08:34;;;;;;;;;17.33;13.00;;;;;22.69;100.00;101295.03;5076526;28;45462;-76
2022/09/01 08:10:59;;;;;;;;;14.33;13.00;;;;;22.76;100.00;101299.31;5077335;28;45366;-77
2022/09/01 08:13:25;;;;;;;;;16.67;14.67;;;;;22.82;100.00;101293.72;5076362;28;51701;-76
2022/09/01 08:15:50;;;;;;;;;16.33;15.00;;;;;22.85;100.00;101295.41;5077128;28;45490;-78
2022/09/01 08:18:16;;;;;;;;;38.33;34.33;;;;;22.92;100.00;101288.94;5054170;28;45522;-76
2022/09/01 08:20:44;;;;;;;;;16.33;14.00;;;;;22.97;100.00;101290.56;5069536;28;54256;-76
2022/09/01 08:23:11;;;;;;;;;19.00;16.00;;;;;23.04;100.00;101301.13;5075427;28;46196;-77
2022/09/01 08:25:37;;;;;;;;;17.33;13.33;;;;;23.09;100.00;101294.66;5072794;27;45361;-77
2022/09/01 08:28:03;;;;;;;;;18.33;15.67;;;;;23.14;100.00;101292.69;5065768;28;45808;-76
2022/09/01 08:30:31;;;;;;;;;13.00;12.67;;;;;23.18;100.00;101305.13;5041652;28;45631;-79
2022/09/01 08:32:56;;;;;;;;;16.33;14.00;;;;;23.22;100.00;101303.19;5059876;28;47005;-76
2022/09/01 08:35:22;;;;;;;;;11.00;11.00;;;;;23.24;100.00;101309.44;5043546;28;45974;-75
2022/09/01 08:37:47;;;;;;;;;15.00;13.00;;;;;23.25;100.00;101312.06;5042726;28;45562;-76
2022/09/01 08:40:16;;;;;;;;;14.00;13.00;;;;;23.30;100.00;101311.91;5071498;28;49076;-78
2022/09/01 08:43:03;;;;;;;;;12.00;12.00;;;;;23.34;100.00;101310.88;5051762;28;45839;-76
2022/09/01 08:45:32;;;;;;;;;15.00;12.00;;;;;23.38;100.00;101314.31;5075959;28;45530;-77
2022/09/01 08:48:15;;;;;;;;;16.67;14.33;;;;;23.40;100.00;101302.56;5068697;28;45406;-76
2022/09/01 08:50:43;;;;;;;;;20.00;18.00;;;;;23.44;100.00;101306.06;5056535;28;45494;-77
2022/09/01 08:53:22;;;;;;;;;14.00;13.00;;;;;23.51;100.00;101308.47;5077051;28;46743;-77
2022/09/01 08:55:51;;;;;;;;;13.67;12.67;;;;;23.58;100.00;101308.25;5057854;28;45529;-77
2022/09/01 08:58:17;;;;;;;;;16.00;13.67;;;;;23.63;99.87;101311.69;5060574;28;45546;-77
2022/09/01 09:00:45;;;;;;;;;14.00;14.00;;;;;23.64;99.43;101298.16;5060238;28;45306;-77
2022/09/01 09:03:25;;;;;;;;;13.33;12.67;;;;;23.73;99.22;101305.03;5076995;28;46241;-77
2022/09/01 09:06:12;;;;;;;;;16.67;13.00;;;;;23.81;98.68;101313.75;5057793;28;45452;-78
2022/09/01 09:08:52;;;;;;;;;16.00;11.67;;;;;23.88;97.95;101311.69;5075750;28;45672;-78
2022/09/01 09:11:49;;;;;;;;;14.00;14.00;;;;;23.93;97.67;101316.00;5076236;28;45502;-78
2022/09/01 09:14:30;;;;;;;;;13.00;11.67;;;;;24.00;97.60;101317.50;5057351;28;46703;-74
2022/09/01 09:16:56;;;;;;;;;15.33;12.67;;;;;24.07;97.22;101312.75;5074381;28;45534;-75
2022/09/01 09:19:30;;;;;;;;;14.00;11.67;;;;;24.14;96.49;101308.03;5059201;28;45511;-76
2022/09/01 09:21:58;;;;;;;;;14.00;11.33;;;;;24.25;97.03;101311.22;5073777;28;45317;-77
2022/09/01 09:24:45;;;;;;;;;14.67;13.67;;;;;24.35;96.17;101309.03;5061049;28;46602;-76
2022/09/01 09:27:21;;;;;;;;;15.00;13.00;;;;;24.44;95.46;101304.16;5060608;28;45389;-76
2022/09/01 09:29:54;;;;;;;;;16.67;14.33;;;;;24.53;95.25;101298.41;5057846;28;45553;-77
2022/09/01 09:32:22;;;;;;;;;15.00;13.67;;;;;24.60;94.62;101306.28;5041693;28;45568;-77
2022/09/01 09:34:48;;;;;;;;;16.00;13.00;;;;;24.66;93.59;101297.91;5059838;28;46680;-76
2022/09/01 09:37:28;;;;;;;;;15.67;14.67;;;;;24.71;93.97;101298.63;5076927;28;45536;-77
2022/09/01 09:40:14;;;;;;;;;14.33;13.67;;;;;24.80;93.35;101306.34;5075973;28;45289;-77
2022/09/01 09:42:43;;;;;;;;;11.00;9.67;;;;;24.84;92.65;101297.19;5059339;28;45598;-77
2022/09/01 09:45:21;;;;;;;;;15.00;13.67;;;;;24.85;92.75;101293.53;5056630;28;45458;-77
2022/09/01 09:47:47;;;;;;;;;17.00;14.33;;;;;24.92;92.18;101294.16;5061273;28;45891;-79
2022/09/01 09:50:34;;;;;;;;;15.33;12.67;;;;;25.00;91.81;101295.63;5057894;28;45453;-77
2022/09/01 09:53:17;;;;;;;;;17.67;12.33;;;;;25.07;90.94;101289.03;5076693;28;45846;-77
2022/09/01 09:55:55;;;;;;;;;14.67;13.00;;;;;25.14;90.19;101286.97;5054156;28;48724;-77
2022/09/01 09:58:25;;;;;;;;;15.00;14.00;;;;;25.19;90.68;101290.34;5056468;28;45505;-78
2022/09/01 10:01:01;;;;;;;;;13.00;13.00;;;;;25.26;89.84;101282.88;5076038;28;45441;-76
2022/09/01 10:03:35;;;;;;;;;12.00;12.00;;;;;25.32;89.69;101288.00;5076035;28;45435;-76
2022/09/01 10:06:01;;;;;;;;;13.00;13.00;;;;;25.40;89.63;101290.34;5076041;28;45891;-77
2022/09/01 10:08:26;;;;;;;;;13.00;13.00;;;;;25.47;89.32;101292.75;5057208;28;45428;-77
2022/09/01 10:10:52;;;;;;;;;14.00;12.33;;;;;25.52;88.38;101297.97;5074023;28;45263;-76
2022/09/01 10:13:20;;;;;;;;;13.67;13.67;;;;;25.52;87.55;101289.84;5057871;28;45470;-77
2022/09/01 10:15:55;;;;;;;;;12.33;12.33;;;;;25.55;88.18;101287.88;5074686;28;46684;-76
2022/09/01 10:18:41;;;;;;;;;16.00;13.00;;;;;25.57;87.38;101287.81;5056971;28;45400;-76
2022/09/01 10:21:16;;;;;;;;;16.00;13.00;;;;;25.62;87.23;101285.78;5055386;28;45233;-76
2022/09/01 10:23:42;;;;;;;;;16.67;14.33;;;;;25.63;86.88;101281.25;5057378;28;45643;-76
2022/09/01 10:26:18;;;;;;;;;16.00;15.00;;;;;25.68;86.53;101285.50;5057834;28;46430;-76
2022/09/01 10:29:12;;;;;;;;;16.00;14.00;;;;;25.74;86.52;101281.66;5057666;28;45342;-77
2022/09/01 10:31:39;;;;;;;;;16.00;14.33;;;;;25.76;85.55;101283.34;5049135;28;46379;-77
2022/09/01 10:34:05;;;;;;;;;14.33;14.33;;;;;25.85;85.55;101280.25;5075105;28;46240;-76
2022/09/01 10:36:31;;;;;;;;;14.67;14.67;;;;;25.90;84.61;101279.16;5048230;28;47605;-76
2022/09/01 10:38:57;;;;;;;;;14.33;11.33;;;;;25.96;84.91;101270.75;5074385;28;45412;-76
2022/09/01 10:41:56;;;;;;;;;14.33;14.33;;;;;26.02;84.76;101274.06;5055585;28;49846;-76
2022/09/01 10:44:30;;;;;;;;;15.67;13.67;;;;;26.09;84.27;101275.53;5041359;28;45435;-76
2022/09/01 10:46:58;;;;;;;;;13.00;13.00;;;;;26.17;84.11;101271.59;5061285;28;45259;-76
2022/09/01 10:49:29;;;;;;;;;13.33;12.00;;;;;26.23;83.52;101263.19;5056900;28;45379;-76
2022/09/01 10:51:56;;;;;;;;;13.33;12.33;;;;;26.27;82.57;101260.25;5075507;28;45528;-76
2022/09/01 10:54:40;;;;;;;;;13.00;12.33;;;;;26.32;82.53;101260.91;5057096;28;45305;-76
2022/09/01 10:57:11;;;;;;;;;18.00;16.33;;;;;26.33;82.01;101262.66;5075333;28;46861;-76
2022/09/01 10:59:38;;;;;;;;;14.67;14.67;;;;;26.34;82.34;101259.00;5035684;28;46065;-76
2022/09/01 11:02:08;;;;;;;;;13.67;12.33;;;;;26.39;82.32;101258.78;5074197;28;45422;-77
2022/09/01 11:04:38;;;;;;;;;14.00;13.00;;;;;26.42;81.11;101265.91;5074993;28;45402;-76
2022/09/01 11:07:05;;;;;;;;;13.67;12.67;;;;;26.39;79.95;101256.06;5055457;28;49011;-76
2022/09/01 11:10:13;;;;;;;;;12.00;12.00;;;;;26.41;81.04;101261.41;5050504;28;45928;-76
2022/09/01 11:13:03;;;;;;;;;12.67;11.00;;;;;26.42;80.34;101264.09;5042768;28;47256;-76
2022/09/01 11:15:35;;;;;;;;;15.00;13.00;;;;;26.43;80.17;101243.31;5071710;28;45514;-77
2022/09/01 11:18:01;;;;;;;;;13.00;11.67;;;;;26.47;80.27;101253.03;5054471;28;45584;-77
2022/09/01 11:20:27;;;;;;;;;11.00;11.00;;;;;26.51;79.38;101241.97;5049566;28;45415;-76